createdAt,value
2022-11-18T00:01:56.371Z,14.23
2022-11-18T00:05:03.967Z,13.50
2022-11-18T00:08:09.595Z,13.90
2022-11-18T00:11:23.225Z,14.20
2022-11-18T00:14:35.803Z,13.88
2022-11-18T00:17:42.831Z,15.80
2022-11-18T00:20:50.466Z,14.55
2022-11-18T00:23:58.225Z,14.70
2022-11-18T00:27:04.547Z,13.20
2022-11-18T00:30:10.014Z,13.90
2022-11-18T00:33:17.692Z,13.03
2022-11-18T00:36:25.594Z,14.47
2022-11-18T00:39:33.601Z,15.55
2022-11-18T00:42:58.556Z,17.05
2022-11-18T00:46:05.392Z,15.43
2022-11-18T00:49:12.727Z,13.38
2022-11-18T00:52:18.848Z,15.15
2022-11-18T00:55:25.579Z,15.43
2022-11-18T00:58:30.613Z,15.55
2022-11-18T01:01:36.936Z,16.65
2022-11-18T01:04:44.056Z,15.53
2022-11-18T01:07:49.071Z,14.78
2022-11-18T01:10:56.557Z,15.20
2022-11-18T01:14:06.543Z,14.53
2022-11-18T01:17:12.036Z,14.80
2022-11-18T01:20:19.296Z,15.13
2022-11-18T01:23:25.404Z,15.13
2022-11-18T01:26:31.793Z,15.98
2022-11-18T01:29:32.434Z,13.32
2022-11-18T01:32:38.164Z,13.62
2022-11-18T01:35:45.092Z,13.25
2022-11-18T01:38:51.886Z,14.38
2022-11-18T01:41:57.928Z,13.93
2022-11-18T01:45:31.828Z,14.47
2022-11-18T01:48:49.457Z,12.73
2022-11-18T01:52:03.976Z,13.72
2022-11-18T01:55:07.844Z,15.05
2022-11-18T01:58:23.593Z,16.20
2022-11-18T02:01:29.299Z,14.78
2022-11-18T02:04:35.341Z,15.35
2022-11-18T02:07:42.042Z,15.13
2022-11-18T02:10:48.726Z,14.23
2022-11-18T02:13:55.521Z,16.48
2022-11-18T02:17:23.791Z,13.22
2022-11-18T02:20:47.452Z,12.93
2022-11-18T02:24:21.443Z,13.25
2022-11-18T02:27:48.705Z,15.23
2022-11-18T02:31:00.505Z,16.80
2022-11-18T02:34:16.442Z,13.70
2022-11-18T02:37:42.269Z,15.83
2022-11-18T02:40:51.638Z,14.23
2022-11-18T02:44:06.267Z,14.68
2022-11-18T02:47:15.725Z,13.58
2022-11-18T02:50:27.434Z,15.43
2022-11-18T02:53:35.240Z,14.15
2022-11-18T02:56:40.805Z,15.45
2022-11-18T02:59:48.244Z,14.58
2022-11-18T03:03:04.039Z,13.88
2022-11-18T03:06:46.494Z,15.75
2022-11-18T03:09:56.153Z,15.58
2022-11-18T03:13:20.144Z,15.08
2022-11-18T03:16:31.632Z,17.90
2022-11-18T03:19:54.728Z,13.60
2022-11-18T03:23:24.503Z,15.08
2022-11-18T03:26:38.497Z,14.65
2022-11-18T03:29:50.551Z,12.68
2022-11-18T03:32:58.512Z,12.05
2022-11-18T03:36:04.398Z,14.25
2022-11-18T03:39:14.741Z,14.30
2022-11-18T03:42:40.810Z,15.60
2022-11-18T03:46:02.725Z,15.60
2022-11-18T03:49:11.281Z,14.30
2022-11-18T03:52:31.172Z,16.15
2022-11-18T03:55:41.456Z,15.08
2022-11-18T03:58:55.092Z,15.03
2022-11-18T04:02:18.448Z,16.05
2022-11-18T04:05:25.945Z,13.50
2022-11-18T04:08:38.274Z,16.50
2022-11-18T04:12:08.588Z,15.30
2022-11-18T04:15:15.732Z,15.83
2022-11-18T04:18:22.292Z,14.68
2022-11-18T04:21:28.953Z,15.23
2022-11-18T04:24:35.429Z,17.90
2022-11-18T04:27:40.558Z,17.07
2022-11-18T04:30:46.095Z,16.45
2022-11-18T04:33:51.459Z,18.85
2022-11-18T04:36:57.664Z,36.15
2022-11-18T04:40:04.410Z,35.45
2022-11-18T04:43:10.958Z,23.02
2022-11-18T04:46:16.458Z,21.80
2022-11-18T04:49:25.303Z,18.02
2022-11-18T04:52:30.733Z,18.30
2022-11-18T04:55:36.448Z,15.72
2022-11-18T04:58:43.745Z,17.73
2022-11-18T05:01:49.823Z,18.90
2022-11-18T05:04:55.002Z,20.95
2022-11-18T05:08:01.283Z,17.87
2022-11-18T05:11:26.684Z,19.85
2022-11-18T05:14:34.827Z,19.85
2022-11-18T05:17:41.438Z,19.15
2022-11-18T05:20:50.512Z,19.73
2022-11-18T05:23:56.258Z,26.45
2022-11-18T05:27:02.850Z,23.05
2022-11-18T05:30:09.307Z,24.82
2022-11-18T05:33:16.282Z,25.32
2022-11-18T05:36:23.991Z,25.10
2022-11-18T05:39:30.396Z,23.35
2022-11-18T05:42:55.125Z,27.22
2022-11-18T05:46:01.845Z,24.70
2022-11-18T05:49:08.668Z,27.95
2022-11-18T05:52:15.513Z,27.30
2022-11-18T05:55:21.252Z,27.77
2022-11-18T05:58:27.793Z,25.70
2022-11-18T06:01:39.357Z,30.60
2022-11-18T06:05:04.319Z,27.07
2022-11-18T06:08:10.618Z,25.30
2022-11-18T06:11:15.732Z,26.90
2022-11-18T06:14:41.602Z,25.32
2022-11-18T06:18:00.035Z,25.25
2022-11-18T06:21:09.119Z,22.80
2022-11-18T06:24:16.575Z,24.77
2022-11-18T06:27:23.758Z,22.77
2022-11-18T06:30:30.031Z,28.02
2022-11-18T06:33:38.096Z,22.82
2022-11-18T06:36:44.360Z,23.32
2022-11-18T06:39:52.616Z,23.45
2022-11-18T06:43:16.583Z,22.55
2022-11-18T06:46:44.235Z,24.37
2022-11-18T06:49:51.194Z,25.90
2022-11-18T06:52:58.993Z,20.70
2022-11-18T06:56:05.231Z,21.20
2022-11-18T06:59:10.889Z,21.68
2022-11-18T07:02:17.991Z,26.07
2022-11-18T07:05:24.384Z,22.25
2022-11-18T07:08:35.581Z,22.95
2022-11-18T07:11:41.271Z,21.50
2022-11-18T07:14:47.999Z,19.30
2022-11-18T07:17:57.177Z,20.55
2022-11-18T07:21:04.352Z,19.82
2022-11-18T07:24:11.496Z,19.15
2022-11-18T07:27:17.601Z,17.10
2022-11-18T07:30:24.755Z,15.58
2022-11-18T07:33:31.281Z,16.57
2022-11-18T07:36:41.909Z,19.37
2022-11-18T07:39:48.688Z,19.80
2022-11-18T07:42:55.185Z,19.87
2022-11-18T07:46:00.763Z,16.32
2022-11-18T07:49:08.354Z,18.60
2022-11-18T07:52:25.060Z,18.05
2022-11-18T07:55:33.868Z,15.32
2022-11-18T07:58:40.543Z,16.48
2022-11-18T08:01:47.184Z,15.90
2022-11-18T08:04:55.540Z,14.18
2022-11-18T08:08:03.935Z,13.62
2022-11-18T08:11:18.981Z,14.05
2022-11-18T08:14:22.483Z,13.85
2022-11-18T08:17:30.526Z,16.45
2022-11-18T08:20:35.833Z,13.75
2022-11-18T08:23:42.243Z,20.00
2022-11-18T08:26:51.946Z,14.80
2022-11-18T08:29:58.663Z,13.75
2022-11-18T08:33:07.182Z,15.30
2022-11-18T08:36:25.486Z,13.30
2022-11-18T08:39:32.816Z,12.25
2022-11-18T08:42:40.148Z,11.93
2022-11-18T08:45:46.704Z,12.60
2022-11-18T08:48:53.042Z,12.60
2022-11-18T08:51:59.790Z,17.95
2022-11-18T08:55:08.136Z,18.17
2022-11-18T08:58:16.427Z,16.75
2022-11-18T09:01:25.400Z,13.72
2022-11-18T09:04:41.941Z,13.43
2022-11-18T09:07:48.529Z,12.58
2022-11-18T09:10:55.284Z,14.00
2022-11-18T09:17:22.858Z,11.65
2022-11-18T09:20:31.869Z,12.35
2022-11-18T09:23:39.818Z,14.78
2022-11-18T09:26:46.107Z,12.40
2022-11-18T09:29:52.794Z,14.55
2022-11-18T09:32:59.454Z,12.47
2022-11-18T09:36:09.398Z,14.50
2022-11-18T09:39:16.467Z,11.78
2022-11-18T09:42:30.128Z,12.82
2022-11-18T09:45:49.095Z,12.93
2022-11-18T09:49:12.945Z,13.13
2022-11-18T09:52:34.273Z,11.68
2022-11-18T09:55:37.154Z,12.85
2022-11-18T09:58:50.038Z,12.95
2022-11-18T10:01:56.037Z,12.40
2022-11-18T10:05:01.935Z,13.38
2022-11-18T10:08:41.146Z,12.75
2022-11-18T10:12:06.419Z,18.65
2022-11-18T10:15:30.191Z,14.83
2022-11-18T10:19:01.176Z,15.13
2022-11-18T10:22:23.809Z,15.72
2022-11-18T10:25:30.343Z,13.30
2022-11-18T10:28:43.296Z,13.80
2022-11-18T10:31:50.340Z,14.05
2022-11-18T10:35:05.598Z,23.02
2022-11-18T10:38:19.738Z,13.15
2022-11-18T10:41:30.627Z,16.93
2022-11-18T10:44:55.799Z,14.00
2022-11-18T10:48:13.749Z,13.45
2022-11-18T10:51:23.315Z,13.70
2022-11-18T10:54:39.305Z,16.05
2022-11-18T10:57:45.491Z,12.63
2022-11-18T11:01:02.808Z,12.37
2022-11-18T11:04:37.896Z,14.55
2022-11-18T11:07:52.287Z,12.05
2022-11-18T11:10:58.724Z,11.90
2022-11-18T11:14:04.768Z,13.20
2022-11-18T11:17:29.213Z,10.82
2022-11-18T11:20:38.532Z,15.18
2022-11-18T11:23:45.526Z,11.93
2022-11-18T11:30:31.100Z,14.07
2022-11-18T11:33:53.443Z,11.95
2022-11-18T11:37:38.471Z,11.15
2022-11-18T11:40:51.686Z,13.83
2022-11-18T11:44:20.457Z,12.23
2022-11-18T11:47:57.235Z,15.13
2022-11-18T11:51:12.957Z,14.98
2022-11-18T11:54:52.715Z,13.00
2022-11-18T11:58:40.854Z,11.35
2022-11-18T12:02:14.535Z,12.20
2022-11-18T12:05:46.521Z,12.10
2022-11-18T12:09:15.255Z,12.20
2022-11-18T12:12:57.524Z,12.50
2022-11-18T12:16:44.317Z,13.65
2022-11-18T12:19:52.658Z,17.27
2022-11-18T12:23:27.552Z,15.15
2022-11-18T12:26:51.947Z,16.55
2022-11-18T12:30:07.377Z,16.48
2022-11-18T12:33:14.088Z,19.48
2022-11-18T12:36:21.022Z,16.00
2022-11-18T12:39:46.633Z,19.40
2022-11-18T12:43:12.899Z,19.48
2022-11-18T12:46:17.244Z,14.90
2022-11-18T12:49:43.767Z,15.40
2022-11-18T12:52:56.355Z,14.87
2022-11-18T12:56:04.985Z,14.95
2022-11-18T12:59:12.517Z,14.38
2022-11-18T13:02:33.516Z,14.23
2022-11-18T13:05:45.815Z,17.20
2022-11-18T13:08:52.806Z,19.48
2022-11-18T13:12:11.470Z,18.27
2022-11-18T13:15:39.221Z,15.20
2022-11-18T13:18:45.025Z,18.52
2022-11-18T13:22:11.680Z,20.40
2022-11-18T13:25:17.664Z,21.27
2022-11-18T13:28:54.851Z,20.27
2022-11-18T13:32:38.055Z,19.15
2022-11-18T13:35:44.160Z,17.10
2022-11-18T13:38:51.298Z,27.75
2022-11-18T13:41:57.364Z,34.50
2022-11-18T13:45:15.450Z,30.88
2022-11-18T13:48:23.945Z,22.00
2022-11-18T13:51:31.157Z,20.97
2022-11-18T13:54:39.981Z,28.42
2022-11-18T13:57:46.578Z,27.65
2022-11-18T14:00:51.844Z,22.98
2022-11-18T14:04:09.264Z,22.90
2022-11-18T14:07:40.542Z,22.20
2022-11-18T14:10:54.330Z,21.60
2022-11-18T14:14:06.391Z,24.12
2022-11-18T14:17:38.360Z,28.83
2022-11-18T14:20:44.526Z,24.63
2022-11-18T14:23:50.830Z,24.95
2022-11-18T14:26:59.855Z,27.52
2022-11-18T14:30:07.490Z,19.87
2022-11-18T14:33:36.353Z,19.80
2022-11-18T14:36:42.193Z,21.75
2022-11-18T14:39:49.017Z,18.80
2022-11-18T14:42:56.720Z,20.37
2022-11-18T14:46:03.399Z,19.60
2022-11-18T14:49:09.803Z,24.02
2022-11-18T14:52:18.040Z,19.12
2022-11-18T14:55:25.885Z,20.80
2022-11-18T14:58:31.080Z,19.15
2022-11-18T15:01:36.453Z,25.77
2022-11-18T15:04:42.735Z,26.75
2022-11-18T15:07:48.193Z,28.02
2022-11-18T15:10:54.070Z,24.27
2022-11-18T15:13:59.331Z,24.60
2022-11-18T15:17:05.238Z,23.00
2022-11-18T15:20:12.895Z,23.07
2022-11-18T15:23:19.608Z,32.90
2022-11-18T15:26:45.795Z,34.83
2022-11-18T15:29:52.055Z,39.20
2022-11-18T15:32:58.218Z,32.58
2022-11-18T15:36:04.742Z,25.02
2022-11-18T15:39:11.706Z,26.73
2022-11-18T15:42:23.170Z,22.15
2022-11-18T15:45:29.658Z,21.20
2022-11-18T15:48:34.823Z,24.43
2022-11-18T15:51:42.096Z,24.80
2022-11-18T15:54:47.379Z,24.52
2022-11-18T15:57:53.657Z,26.42
2022-11-18T16:01:02.211Z,29.07
2022-11-18T16:04:07.205Z,40.95
2022-11-18T16:07:13.001Z,39.83
2022-11-18T16:10:36.440Z,31.07
2022-11-18T16:13:43.369Z,29.50
2022-11-18T16:16:50.227Z,32.03
2022-11-18T16:19:56.706Z,37.38
2022-11-18T16:23:02.708Z,33.85
2022-11-18T16:26:08.607Z,27.13
2022-11-18T16:29:14.531Z,27.75
2022-11-18T16:32:23.400Z,27.20
2022-11-18T16:35:30.018Z,26.40
2022-11-18T16:38:38.198Z,29.60
2022-11-18T16:41:44.676Z,27.75
2022-11-18T16:44:51.654Z,27.82
2022-11-18T16:47:59.910Z,50.38
2022-11-18T16:51:18.762Z,37.42
2022-11-18T16:54:29.968Z,30.57
2022-11-18T16:57:37.946Z,28.12
2022-11-18T17:01:16.611Z,25.37
2022-11-18T17:03:50.242Z,22.60
2022-11-18T17:06:56.408Z,21.33
2022-11-18T17:10:03.759Z,21.30
2022-11-18T17:13:09.084Z,20.88
2022-11-18T17:16:23.037Z,21.82
2022-11-18T17:19:31.541Z,17.92
2022-11-18T17:22:39.465Z,17.80
2022-11-18T17:25:46.758Z,17.98
2022-11-18T17:28:53.643Z,17.05
2022-11-18T17:32:02.586Z,15.93
2022-11-18T17:35:10.144Z,17.85
2022-11-18T17:38:18.331Z,17.45
2022-11-18T17:41:44.978Z,18.35
2022-11-18T17:44:50.726Z,16.05
2022-11-18T17:48:00.419Z,19.23
2022-11-18T17:51:06.697Z,17.02
2022-11-18T17:54:13.579Z,18.50
2022-11-18T17:57:19.480Z,20.32
2022-11-18T18:00:27.262Z,18.67
2022-11-18T18:03:34.239Z,20.95
2022-11-18T18:06:40.920Z,19.00
2022-11-18T18:09:46.712Z,18.70
2022-11-18T18:13:11.527Z,18.73
2022-11-18T18:16:18.454Z,20.52
2022-11-18T18:19:25.473Z,20.15
2022-11-18T18:22:31.168Z,19.98
2022-11-18T18:25:36.148Z,17.50
2022-11-18T18:28:42.001Z,19.82
2022-11-18T18:31:51.394Z,19.02
2022-11-18T18:34:58.137Z,18.95
2022-11-18T18:38:05.140Z,20.50
2022-11-18T18:41:18.431Z,17.60
2022-11-18T18:44:25.332Z,18.12
2022-11-18T18:47:31.208Z,18.10
2022-11-18T18:50:37.984Z,18.98
2022-11-18T18:53:44.330Z,19.45
2022-11-18T18:56:48.890Z,18.70
2022-11-18T18:59:55.196Z,18.73
2022-11-18T19:03:01.961Z,18.15
2022-11-18T19:09:18.493Z,20.20
2022-11-18T19:12:43.899Z,20.43
2022-11-18T19:15:50.832Z,18.27
2022-11-18T19:18:59.093Z,19.52
2022-11-18T19:22:05.784Z,21.52
2022-11-18T19:25:12.858Z,19.10
2022-11-18T19:28:19.609Z,21.48
2022-11-18T19:31:30.206Z,21.52
2022-11-18T19:34:36.705Z,20.35
2022-11-18T19:37:41.847Z,19.98
2022-11-18T19:40:47.713Z,20.12
2022-11-18T19:43:54.663Z,20.32
2022-11-18T19:47:01.704Z,21.02
2022-11-18T19:50:08.645Z,21.55
2022-11-18T19:53:16.226Z,20.08
2022-11-18T19:56:28.379Z,20.27
2022-11-18T19:59:32.976Z,20.02
2022-11-18T20:02:37.923Z,23.95
2022-11-18T20:06:01.192Z,21.93
2022-11-18T20:09:06.832Z,25.72
2022-11-18T20:12:14.705Z,23.07
2022-11-18T20:15:21.634Z,25.50
2022-11-18T20:18:30.497Z,25.77
2022-11-18T20:21:39.899Z,28.02
2022-11-18T20:24:47.095Z,24.45
2022-11-18T20:27:52.145Z,26.52
2022-11-18T20:31:02.450Z,28.25
2022-11-18T20:34:09.826Z,21.75
2022-11-18T20:37:18.846Z,25.68
2022-11-18T20:40:26.547Z,23.95
2022-11-18T20:43:34.880Z,24.40
2022-11-18T20:46:42.868Z,24.77
2022-11-18T20:49:49.939Z,26.97
2022-11-18T20:52:55.309Z,29.65
2022-11-18T20:56:04.125Z,30.25
2022-11-18T20:59:11.912Z,31.95
2022-11-18T21:02:18.462Z,30.25
2022-11-18T21:05:26.455Z,31.00
2022-11-18T21:08:34.789Z,32.70
2022-11-18T21:11:41.720Z,28.50
2022-11-18T21:14:49.182Z,31.17
2022-11-18T21:17:55.405Z,29.20
2022-11-18T21:21:20.018Z,27.60
2022-11-18T21:24:30.211Z,28.07
2022-11-18T21:27:36.192Z,32.15
2022-11-18T21:30:43.277Z,30.35
2022-11-18T21:33:50.321Z,31.65
2022-11-18T21:36:57.995Z,32.33
2022-11-18T21:40:06.508Z,29.00
2022-11-18T21:43:13.439Z,32.53
2022-11-18T21:46:25.172Z,34.43
2022-11-18T21:49:31.827Z,34.43
2022-11-18T21:52:38.242Z,31.82
2022-11-18T21:55:43.528Z,34.73
2022-11-18T21:58:50.308Z,35.05
2022-11-18T22:01:57.003Z,34.27
2022-11-18T22:05:04.439Z,35.63
2022-11-18T22:08:10.485Z,35.43
2022-11-18T22:11:19.040Z,37.25
2022-11-18T22:14:26.424Z,33.53
2022-11-18T22:17:35.575Z,35.38
2022-11-18T22:20:43.306Z,35.08
2022-11-18T22:23:49.216Z,32.98
2022-11-18T22:26:54.607Z,37.05
2022-11-18T22:30:00.179Z,35.45
2022-11-18T22:33:06.567Z,34.67
2022-11-18T22:36:19.978Z,36.23
2022-11-18T22:39:27.441Z,34.15
2022-11-18T22:42:51.309Z,34.05
2022-11-18T22:45:56.952Z,32.35
2022-11-18T22:49:04.547Z,33.00
2022-11-18T22:52:12.929Z,33.15
2022-11-18T22:55:20.177Z,35.60
2022-11-18T22:58:26.464Z,36.48
2022-11-18T23:01:34.680Z,35.33
2022-11-18T23:04:41.747Z,33.13
2022-11-18T23:07:47.129Z,31.60
2022-11-18T23:10:53.100Z,32.38
2022-11-18T23:14:05.267Z,32.42
2022-11-18T23:17:11.582Z,31.30
2022-11-18T23:20:20.317Z,32.55
2022-11-18T23:23:26.562Z,31.30
2022-11-18T23:26:32.607Z,32.45
2022-11-18T23:29:39.130Z,31.60
2022-11-18T23:32:46.567Z,33.50
2022-11-18T23:35:53.400Z,31.05
2022-11-18T23:39:01.695Z,32.20
2022-11-18T23:42:09.570Z,29.63
2022-11-18T23:45:16.692Z,35.98
2022-11-18T23:48:22.087Z,31.80
2022-11-18T23:51:33.362Z,30.30
2022-11-18T23:54:40.892Z,31.25
2022-11-18T23:57:46.291Z,36.23
